createdAt,value
2022-08-26T00:08:05.531Z,20.28
2022-08-26T00:18:22.064Z,20.35
2022-08-26T00:28:06.911Z,20.61
2022-08-26T00:38:07.120Z,20.39
2022-08-26T00:48:06.152Z,20.41
2022-08-26T00:58:08.618Z,20.36
2022-08-26T01:08:06.681Z,20.18
2022-08-26T01:18:07.020Z,20.43
2022-08-26T01:28:07.071Z,20.74
2022-08-26T01:38:07.367Z,20.43
2022-08-26T01:48:07.535Z,20.05
2022-08-26T01:58:07.914Z,20.03
2022-08-26T02:08:07.955Z,19.87
2022-08-26T02:18:08.265Z,19.80
2022-08-26T02:28:09.372Z,19.84
2022-08-26T02:38:10.340Z,19.83
2022-08-26T02:48:08.688Z,20.28
2022-08-26T02:58:08.952Z,20.10
2022-08-26T03:08:09.066Z,19.77
2022-08-26T03:18:09.304Z,19.77
2022-08-26T03:28:09.649Z,19.78
2022-08-26T03:38:11.941Z,19.94
2022-08-26T03:48:09.766Z,19.78
2022-08-26T03:58:10.105Z,19.58
2022-08-26T04:08:10.165Z,19.71
2022-08-26T04:18:10.465Z,19.33
2022-08-26T04:28:10.697Z,19.00
2022-08-26T04:38:11.021Z,18.72
2022-08-26T04:48:11.245Z,18.66
2022-08-26T04:58:11.369Z,18.62
2022-08-26T05:08:11.565Z,18.45
2022-08-26T05:18:11.716Z,19.00
2022-08-26T05:28:11.827Z,18.20
2022-08-26T05:38:12.952Z,18.39
2022-08-26T05:48:12.007Z,18.90
2022-08-26T05:58:12.316Z,19.18
2022-08-26T06:08:12.335Z,19.61
2022-08-26T06:18:12.684Z,20.14
2022-08-26T06:28:12.706Z,20.89
2022-08-26T06:38:12.911Z,21.17
2022-08-26T06:48:12.934Z,21.01
2022-08-26T06:58:13.050Z,21.43
2022-08-26T07:08:13.140Z,21.24
2022-08-26T07:18:13.441Z,21.56
2022-08-26T07:28:13.475Z,22.27
2022-08-26T07:38:13.817Z,22.75
2022-08-26T07:48:13.933Z,23.10
2022-08-26T07:58:14.108Z,23.53
2022-08-26T08:08:26.774Z,23.84
2022-08-26T08:18:15.734Z,24.50
2022-08-26T08:28:14.537Z,24.91
2022-08-26T08:38:14.544Z,25.08
2022-08-26T08:48:14.887Z,25.28
2022-08-26T08:58:14.946Z,26.52
2022-08-26T09:08:15.117Z,27.17
2022-08-26T09:18:15.406Z,27.29
2022-08-26T09:28:15.448Z,27.82
2022-08-26T09:38:15.967Z,27.75
2022-08-26T09:48:18.654Z,28.54
2022-08-26T09:58:16.206Z,28.55
2022-08-26T10:08:16.235Z,28.74
2022-08-26T10:18:16.564Z,29.11
2022-08-26T10:28:16.654Z,29.52
2022-08-26T10:38:17.003Z,29.71
2022-08-26T10:48:17.072Z,29.42
2022-08-26T10:58:26.485Z,30.01
2022-08-26T11:08:18.447Z,30.64
2022-08-26T11:18:17.817Z,30.15
2022-08-26T11:28:17.821Z,30.43
2022-08-26T11:38:18.058Z,30.35
2022-08-26T11:48:18.174Z,31.07
2022-08-26T11:58:18.432Z,31.26
2022-08-26T12:08:18.677Z,31.57
2022-08-26T12:18:20.681Z,31.39
2022-08-26T12:28:20.014Z,31.73
2022-08-26T12:38:19.230Z,31.84
2022-08-26T12:48:19.294Z,31.61
2022-08-26T12:58:21.524Z,29.58
2022-08-26T13:08:19.646Z,29.16
2022-08-26T13:18:19.699Z,29.89
2022-08-26T13:28:20.114Z,30.97
2022-08-26T13:38:32.930Z,30.67
2022-08-26T13:48:23.358Z,30.72
2022-08-26T13:58:20.537Z,31.91
2022-08-26T14:08:20.606Z,31.93
2022-08-26T14:18:20.999Z,32.07
2022-08-26T14:28:20.996Z,32.00
2022-08-26T14:38:21.161Z,31.96
2022-08-26T14:48:21.235Z,31.46
2022-08-26T14:58:23.570Z,29.55
2022-08-26T15:08:21.648Z,29.28
2022-08-26T15:18:22.094Z,30.01
2022-08-26T15:28:22.464Z,30.69
2022-08-26T15:38:23.484Z,30.82
2022-08-26T15:48:22.568Z,29.46
2022-08-26T15:58:22.747Z,28.68
2022-08-26T16:08:22.759Z,28.34
2022-08-26T16:18:23.598Z,28.02
2022-08-26T16:28:26.213Z,27.78
2022-08-26T16:38:23.386Z,27.47
2022-08-26T16:48:23.307Z,27.63
2022-08-26T16:58:23.538Z,27.27
2022-08-26T17:08:28.407Z,26.99
2022-08-26T17:18:24.678Z,26.57
2022-08-26T17:28:23.969Z,26.37
2022-08-26T17:38:24.027Z,26.39
2022-08-26T17:48:24.341Z,25.69
2022-08-26T17:58:24.503Z,25.02
2022-08-26T18:08:24.873Z,23.58
2022-08-26T18:18:24.959Z,20.85
2022-08-26T18:28:25.018Z,20.39
2022-08-26T18:38:25.247Z,19.91
2022-08-26T18:48:25.478Z,19.91
2022-08-26T18:58:25.547Z,20.02
2022-08-26T19:08:25.779Z,19.91
2022-08-26T19:18:25.909Z,19.78
2022-08-26T19:28:26.207Z,19.39
2022-08-26T19:38:26.095Z,19.48
2022-08-26T19:48:26.588Z,19.36
2022-08-26T19:58:26.640Z,19.46
2022-08-26T20:08:26.886Z,19.33
2022-08-26T20:18:26.944Z,19.19
2022-08-26T20:28:27.177Z,19.22
2022-08-26T20:38:27.367Z,19.00
2022-08-26T20:48:27.608Z,18.99
2022-08-26T20:58:27.692Z,18.91
2022-08-26T21:08:27.855Z,18.88
2022-08-26T21:18:27.925Z,18.65
2022-08-26T21:28:28.338Z,18.52
2022-08-26T21:38:28.450Z,18.69
2022-08-26T21:48:32.204Z,18.76
2022-08-26T21:58:29.637Z,18.91
2022-08-26T22:08:28.778Z,18.81
2022-08-26T22:18:28.830Z,18.55
2022-08-26T22:28:29.137Z,18.52
2022-08-26T22:38:29.206Z,18.48
2022-08-26T22:48:29.387Z,18.76
2022-08-26T22:58:30.370Z,18.82
2022-08-26T23:08:29.728Z,18.72
2022-08-26T23:18:29.777Z,18.58
2022-08-26T23:28:30.076Z,18.60
2022-08-26T23:38:30.128Z,18.42
2022-08-26T23:48:30.529Z,18.37
2022-08-26T23:58:30.578Z,18.51
